sensor_id;sensor_type;location;lat;lon;timestamp;temperature;humidity
66594;DHT22;53450;42.584;23.366;2024-03-06T00:00:40;4.15;85.29
66594;DHT22;53450;42.584;23.366;2024-03-06T00:03:08;4.05;85.60
66594;DHT22;53450;42.584;23.366;2024-03-06T00:05:34;3.96;85.69
66594;DHT22;53450;42.584;23.366;2024-03-06T00:07:59;3.84;86.08
66594;DHT22;53450;42.584;23.366;2024-03-06T00:10:28;3.77;86.46
66594;DHT22;53450;42.584;23.366;2024-03-06T00:12:55;3.73;86.68
66594;DHT22;53450;42.584;23.366;2024-03-06T00:15:20;3.64;86.64
66594;DHT22;53450;42.584;23.366;2024-03-06T00:17:54;3.54;86.74
66594;DHT22;53450;42.584;23.366;2024-03-06T00:20:19;3.53;86.98
66594;DHT22;53450;42.584;23.366;2024-03-06T00:22:45;3.51;87.16
66594;DHT22;53450;42.584;23.366;2024-03-06T00:25:11;3.53;87.02
66594;DHT22;53450;42.584;23.366;2024-03-06T00:27:37;3.50;86.65
66594;DHT22;53450;42.584;23.366;2024-03-06T00:30:05;3.48;86.46
66594;DHT22;53450;42.584;23.366;2024-03-06T00:32:32;3.45;86.30
66594;DHT22;53450;42.584;23.366;2024-03-06T00:35:00;3.33;86.52
66594;DHT22;53450;42.584;23.366;2024-03-06T00:37:25;3.28;86.68
66594;DHT22;53450;42.584;23.366;2024-03-06T00:39:51;3.28;86.94
66594;DHT22;53450;42.584;23.366;2024-03-06T00:42:29;3.24;87.09
66594;DHT22;53450;42.584;23.366;2024-03-06T00:44:55;3.06;87.29
66594;DHT22;53450;42.584;23.366;2024-03-06T00:47:20;3.09;87.57
66594;DHT22;53450;42.584;23.366;2024-03-06T00:49:51;3.06;87.56
66594;DHT22;53450;42.584;23.366;2024-03-06T00:52:19;3.06;87.61
66594;DHT22;53450;42.584;23.366;2024-03-06T00:54:44;3.09;87.77
66594;DHT22;53450;42.584;23.366;2024-03-06T00:57:10;3.24;87.35
66594;DHT22;53450;42.584;23.366;2024-03-06T00:59:39;3.30;86.59
66594;DHT22;53450;42.584;23.366;2024-03-06T01:02:04;3.36;86.32
66594;DHT22;53450;42.584;23.366;2024-03-06T01:04:31;3.36;86.32
66594;DHT22;53450;42.584;23.366;2024-03-06T01:06:57;3.36;85.60
66594;DHT22;53450;42.584;23.366;2024-03-06T01:09:28;3.34;85.57
66594;DHT22;53450;42.584;23.366;2024-03-06T01:11:54;3.36;86.02
66594;DHT22;53450;42.584;23.366;2024-03-06T01:14:22;3.44;85.93
66594;DHT22;53450;42.584;23.366;2024-03-06T01:16:48;3.47;85.72
66594;DHT22;53450;42.584;23.366;2024-03-06T01:19:14;3.45;85.87
66594;DHT22;53450;42.584;23.366;2024-03-06T01:21:42;3.53;85.81
66594;DHT22;53450;42.584;23.366;2024-03-06T01:24:08;3.48;85.91
66594;DHT22;53450;42.584;23.366;2024-03-06T01:26:34;3.51;85.89
66594;DHT22;53450;42.584;23.366;2024-03-06T01:28:59;3.54;86.18
66594;DHT22;53450;42.584;23.366;2024-03-06T01:31:25;3.61;86.11
66594;DHT22;53450;42.584;23.366;2024-03-06T01:33:53;3.58;86.15
66594;DHT22;53450;42.584;23.366;2024-03-06T01:36:20;3.47;86.15
66594;DHT22;53450;42.584;23.366;2024-03-06T01:38:48;3.53;86.09
66594;DHT22;53450;42.584;23.366;2024-03-06T01:41:14;3.53;85.56
66594;DHT22;53450;42.584;23.366;2024-03-06T01:43:40;3.53;85.20
66594;DHT22;53450;42.584;23.366;2024-03-06T01:46:06;3.43;85.00
66594;DHT22;53450;42.584;23.366;2024-03-06T01:48:35;3.36;85.04
66594;DHT22;53450;42.584;23.366;2024-03-06T01:51:06;3.31;85.31
66594;DHT22;53450;42.584;23.366;2024-03-06T01:53:53;3.27;85.42
66594;DHT22;53450;42.584;23.366;2024-03-06T01:56:21;3.07;85.60
66594;DHT22;53450;42.584;23.366;2024-03-06T01:58:55;2.93;85.92
66594;DHT22;53450;42.584;23.366;2024-03-06T02:01:22;2.76;86.22
66594;DHT22;53450;42.584;23.366;2024-03-06T02:03:47;2.89;86.20
66594;DHT22;53450;42.584;23.366;2024-03-06T02:06:14;2.91;85.71
66594;DHT22;53450;42.584;23.366;2024-03-06T02:08:45;2.85;85.48
66594;DHT22;53450;42.584;23.366;2024-03-06T02:11:14;2.76;85.52
66594;DHT22;53450;42.584;23.366;2024-03-06T02:13:41;2.64;85.56
66594;DHT22;53450;42.584;23.366;2024-03-06T02:16:07;2.59;85.85
66594;DHT22;53450;42.584;23.366;2024-03-06T02:18:33;2.64;86.23
66594;DHT22;53450;42.584;23.366;2024-03-06T02:20:59;2.64;86.27
66594;DHT22;53450;42.584;23.366;2024-03-06T02:23:27;2.64;86.19
66594;DHT22;53450;42.584;23.366;2024-03-06T02:25:53;2.68;85.89
66594;DHT22;53450;42.584;23.366;2024-03-06T02:28:18;2.69;85.46
66594;DHT22;53450;42.584;23.366;2024-03-06T02:30:44;2.65;85.08
66594;DHT22;53450;42.584;23.366;2024-03-06T02:33:10;2.58;84.92
66594;DHT22;53450;42.584;23.366;2024-03-06T02:35:41;2.57;84.59
66594;DHT22;53450;42.584;23.366;2024-03-06T02:38:10;2.52;84.91
66594;DHT22;53450;42.584;23.366;2024-03-06T02:40:36;2.44;84.61
66594;DHT22;53450;42.584;23.366;2024-03-06T02:43:02;2.40;84.70
66594;DHT22;53450;42.584;23.366;2024-03-06T02:45:33;2.30;84.67
66594;DHT22;53450;42.584;23.366;2024-03-06T02:47:59;2.26;85.06
66594;DHT22;53450;42.584;23.366;2024-03-06T02:50:25;2.23;85.09
66594;DHT22;53450;42.584;23.366;2024-03-06T02:52:50;2.20;85.16
66594;DHT22;53450;42.584;23.366;2024-03-06T02:55:36;2.23;85.11
66594;DHT22;53450;42.584;23.366;2024-03-06T02:58:04;2.27;84.76
66594;DHT22;53450;42.584;23.366;2024-03-06T03:00:30;2.18;85.10
66594;DHT22;53450;42.584;23.366;2024-03-06T03:02:57;2.23;85.43
66594;DHT22;53450;42.584;23.366;2024-03-06T03:05:25;2.27;85.32
66594;DHT22;53450;42.584;23.366;2024-03-06T03:07:54;2.33;85.20
66594;DHT22;53450;42.584;23.366;2024-03-06T03:10:23;2.33;85.31
66594;DHT22;53450;42.584;23.366;2024-03-06T03:12:50;2.27;85.22
66594;DHT22;53450;42.584;23.366;2024-03-06T03:15:15;2.27;85.46
66594;DHT22;53450;42.584;23.366;2024-03-06T03:17:44;2.20;85.65
66594;DHT22;53450;42.584;23.366;2024-03-06T03:20:10;2.13;85.76
66594;DHT22;53450;42.584;23.366;2024-03-06T03:22:40;2.24;85.94
66594;DHT22;53450;42.584;23.366;2024-03-06T03:25:09;2.23;85.82
66594;DHT22;53450;42.584;23.366;2024-03-06T03:27:42;2.21;85.86
66594;DHT22;53450;42.584;23.366;2024-03-06T03:30:12;2.21;85.88
66594;DHT22;53450;42.584;23.366;2024-03-06T03:32:37;2.23;85.86
66594;DHT22;53450;42.584;23.366;2024-03-06T03:35:06;2.23;85.82
66594;DHT22;53450;42.584;23.366;2024-03-06T03:37:33;2.20;85.96
66594;DHT22;53450;42.584;23.366;2024-03-06T03:39:59;2.21;86.12
66594;DHT22;53450;42.584;23.366;2024-03-06T03:42:27;2.27;86.22
66594;DHT22;53450;42.584;23.366;2024-03-06T03:44:52;2.28;86.31
66594;DHT22;53450;42.584;23.366;2024-03-06T03:47:18;2.38;86.38
66594;DHT22;53450;42.584;23.366;2024-03-06T03:49:44;2.38;86.24
66594;DHT22;53450;42.584;23.366;2024-03-06T03:52:10;2.40;85.23
66594;DHT22;53450;42.584;23.366;2024-03-06T03:54:40;2.33;84.81
66594;DHT22;53450;42.584;23.366;2024-03-06T03:57:08;2.30;84.69
66594;DHT22;53450;42.584;23.366;2024-03-06T03:59:34;2.18;84.69
66594;DHT22;53450;42.584;23.366;2024-03-06T04:01:59;2.09;85.02
66594;DHT22;53450;42.584;23.366;2024-03-06T04:04:25;1.99;85.18
66594;DHT22;53450;42.584;23.366;2024-03-06T04:06:50;1.89;85.88
66594;DHT22;53450;42.584;23.366;2024-03-06T04:09:16;1.87;86.37
66594;DHT22;53450;42.584;23.366;2024-03-06T04:11:42;1.86;86.66
66594;DHT22;53450;42.584;23.366;2024-03-06T04:14:09;1.85;86.59
66594;DHT22;53450;42.584;23.366;2024-03-06T04:16:34;1.82;86.65
66594;DHT22;53450;42.584;23.366;2024-03-06T04:19:03;1.83;86.63
66594;DHT22;53450;42.584;23.366;2024-03-06T04:21:32;1.82;86.67
66594;DHT22;53450;42.584;23.366;2024-03-06T04:23:59;1.79;86.50
66594;DHT22;53450;42.584;23.366;2024-03-06T04:26:25;1.79;86.63
66594;DHT22;53450;42.584;23.366;2024-03-06T04:28:54;1.75;86.84
66594;DHT22;53450;42.584;23.366;2024-03-06T04:31:19;1.72;86.90
66594;DHT22;53450;42.584;23.366;2024-03-06T04:33:45;1.69;86.86
66594;DHT22;53450;42.584;23.366;2024-03-06T04:36:10;1.79;86.88
66594;DHT22;53450;42.584;23.366;2024-03-06T04:38:39;1.80;86.93
66594;DHT22;53450;42.584;23.366;2024-03-06T04:41:05;1.82;86.67
66594;DHT22;53450;42.584;23.366;2024-03-06T04:43:32;1.80;86.52
66594;DHT22;53450;42.584;23.366;2024-03-06T04:45:57;1.85;86.58
66594;DHT22;53450;42.584;23.366;2024-03-06T04:48:23;1.79;86.56
66594;DHT22;53450;42.584;23.366;2024-03-06T04:50:49;1.73;86.69
66594;DHT22;53450;42.584;23.366;2024-03-06T04:53:15;1.70;86.80
66594;DHT22;53450;42.584;23.366;2024-03-06T04:55:40;1.73;86.97
66594;DHT22;53450;42.584;23.366;2024-03-06T04:58:06;1.72;87.04
66594;DHT22;53450;42.584;23.366;2024-03-06T05:00:35;1.79;86.87
66594;DHT22;53450;42.584;23.366;2024-03-06T05:03:01;1.75;86.68
66594;DHT22;53450;42.584;23.366;2024-03-06T05:05:29;1.72;86.84
66594;DHT22;53450;42.584;23.366;2024-03-06T05:07:57;1.73;87.02
66594;DHT22;53450;42.584;23.366;2024-03-06T05:10:28;1.77;87.28
66594;DHT22;53450;42.584;23.366;2024-03-06T05:13:00;1.83;87.46
66594;DHT22;53450;42.584;23.366;2024-03-06T05:15:25;1.92;87.55
66594;DHT22;53450;42.584;23.366;2024-03-06T05:18:02;2.00;87.65
66594;DHT22;53450;42.584;23.366;2024-03-06T05:20:34;1.99;87.72
66594;DHT22;53450;42.584;23.366;2024-03-06T05:23:12;1.97;87.82
66594;DHT22;53450;42.584;23.366;2024-03-06T05:25:49;2.21;87.82
66594;DHT22;53450;42.584;23.366;2024-03-06T05:28:15;2.42;87.68
66594;DHT22;53450;42.584;23.366;2024-03-06T05:30:41;2.51;86.88
66594;DHT22;53450;42.584;23.366;2024-03-06T05:33:12;2.68;86.37
66594;DHT22;53450;42.584;23.366;2024-03-06T05:35:40;2.79;86.09
66594;DHT22;53450;42.584;23.366;2024-03-06T05:38:06;2.86;85.57
66594;DHT22;53450;42.584;23.366;2024-03-06T05:40:40;2.88;85.40
66594;DHT22;53450;42.584;23.366;2024-03-06T05:43:21;2.92;85.54
66594;DHT22;53450;42.584;23.366;2024-03-06T05:45:49;2.99;85.72
66594;DHT22;53450;42.584;23.366;2024-03-06T05:48:14;3.07;85.91
66594;DHT22;53450;42.584;23.366;2024-03-06T05:50:42;3.26;85.51
66594;DHT22;53450;42.584;23.366;2024-03-06T05:53:11;3.37;85.53
66594;DHT22;53450;42.584;23.366;2024-03-06T05:55:37;3.54;85.07
66594;DHT22;53450;42.584;23.366;2024-03-06T05:58:03;3.67;84.67
66594;DHT22;53450;42.584;23.366;2024-03-06T06:00:31;3.88;84.76
66594;DHT22;53450;42.584;23.366;2024-03-06T06:02:56;3.89;84.68
66594;DHT22;53450;42.584;23.366;2024-03-06T06:05:22;4.13;84.33
66594;DHT22;53450;42.584;23.366;2024-03-06T06:08:12;4.40;83.68
66594;DHT22;53450;42.584;23.366;2024-03-06T06:10:38;4.40;83.50
66594;DHT22;53450;42.584;23.366;2024-03-06T06:13:04;4.26;83.76
66594;DHT22;53450;42.584;23.366;2024-03-06T06:15:40;4.15;84.14
66594;DHT22;53450;42.584;23.366;2024-03-06T06:18:15;4.15;84.64
66594;DHT22;53450;42.584;23.366;2024-03-06T06:20:43;4.03;84.94
66594;DHT22;53450;42.584;23.366;2024-03-06T06:23:19;4.13;85.29
66594;DHT22;53450;42.584;23.366;2024-03-06T06:25:55;4.40;84.23
66594;DHT22;53450;42.584;23.366;2024-03-06T06:28:33;4.68;83.00
66594;DHT22;53450;42.584;23.366;2024-03-06T06:31:01;4.85;82.80
66594;DHT22;53450;42.584;23.366;2024-03-06T06:33:32;4.96;82.83
66594;DHT22;53450;42.584;23.366;2024-03-06T06:36:00;5.04;82.78
66594;DHT22;53450;42.584;23.366;2024-03-06T06:38:27;5.15;83.11
66594;DHT22;53450;42.584;23.366;2024-03-06T06:40:53;5.26;82.54
66594;DHT22;53450;42.584;23.366;2024-03-06T06:43:22;5.28;82.89
66594;DHT22;53450;42.584;23.366;2024-03-06T06:45:53;5.42;83.35
66594;DHT22;53450;42.584;23.366;2024-03-06T06:48:24;5.46;83.07
66594;DHT22;53450;42.584;23.366;2024-03-06T06:51:00;5.50;83.43
66594;DHT22;53450;42.584;23.366;2024-03-06T06:53:30;5.63;82.46
66594;DHT22;53450;42.584;23.366;2024-03-06T06:56:04;5.60;82.65
66594;DHT22;53450;42.584;23.366;2024-03-06T06:58:29;5.77;83.20
66594;DHT22;53450;42.584;23.366;2024-03-06T07:00:55;5.90;83.12
66594;DHT22;53450;42.584;23.366;2024-03-06T07:03:24;5.91;83.05
66594;DHT22;53450;42.584;23.366;2024-03-06T07:05:56;5.93;83.01
66594;DHT22;53450;42.584;23.366;2024-03-06T07:08:26;6.12;83.07
66594;DHT22;53450;42.584;23.366;2024-03-06T07:11:03;6.04;82.32
66594;DHT22;53450;42.584;23.366;2024-03-06T07:13:29;6.15;82.30
66594;DHT22;53450;42.584;23.366;2024-03-06T07:16:03;6.36;82.17
66594;DHT22;53450;42.584;23.366;2024-03-06T07:18:32;6.43;81.43
66594;DHT22;53450;42.584;23.366;2024-03-06T07:21:00;6.42;81.19
66594;DHT22;53450;42.584;23.366;2024-03-06T07:26:14;6.68;80.44
66594;DHT22;53450;42.584;23.366;2024-03-06T07:28:45;6.77;80.00
66594;DHT22;53450;42.584;23.366;2024-03-06T07:31:26;6.73;78.92
66594;DHT22;53450;42.584;23.366;2024-03-06T07:33:54;6.94;78.25
66594;DHT22;53450;42.584;23.366;2024-03-06T07:36:30;7.04;78.11
66594;DHT22;53450;42.584;23.366;2024-03-06T07:39:00;7.14;78.24
66594;DHT22;53450;42.584;23.366;2024-03-06T07:41:26;7.20;78.95
66594;DHT22;53450;42.584;23.366;2024-03-06T07:43:57;7.35;80.14
66594;DHT22;53450;42.584;23.366;2024-03-06T07:46:22;7.38;78.55
66594;DHT22;53450;42.584;23.366;2024-03-06T07:49:16;7.34;78.91
66594;DHT22;53450;42.584;23.366;2024-03-06T07:51:42;7.31;79.49
66594;DHT22;53450;42.584;23.366;2024-03-06T07:54:10;7.22;78.35
66594;DHT22;53450;42.584;23.366;2024-03-06T07:56:36;7.03;78.15
66594;DHT22;53450;42.584;23.366;2024-03-06T07:59:02;6.93;79.03
66594;DHT22;53450;42.584;23.366;2024-03-06T08:01:35;7.05;78.85
66594;DHT22;53450;42.584;23.366;2024-03-06T08:07:22;6.91;78.83
66594;DHT22;53450;42.584;23.366;2024-03-06T08:09:48;7.01;78.68
66594;DHT22;53450;42.584;23.366;2024-03-06T08:12:14;7.14;78.00
66594;DHT22;53450;42.584;23.366;2024-03-06T08:14:45;7.25;76.39
66594;DHT22;53450;42.584;23.366;2024-03-06T08:17:11;7.36;74.90
66594;DHT22;53450;42.584;23.366;2024-03-06T08:19:53;7.47;75.75
66594;DHT22;53450;42.584;23.366;2024-03-06T08:22:19;7.48;75.97
66594;DHT22;53450;42.584;23.366;2024-03-06T08:24:50;7.54;75.79
66594;DHT22;53450;42.584;23.366;2024-03-06T08:27:18;7.55;75.47
66594;DHT22;53450;42.584;23.366;2024-03-06T08:29:46;7.69;74.58
66594;DHT22;53450;42.584;23.366;2024-03-06T08:32:15;7.68;75.91
66594;DHT22;53450;42.584;23.366;2024-03-06T08:34:56;7.73;75.56
66594;DHT22;53450;42.584;23.366;2024-03-06T08:37:24;7.68;74.56
66594;DHT22;53450;42.584;23.366;2024-03-06T08:39:50;7.70;75.58
66594;DHT22;53450;42.584;23.366;2024-03-06T08:42:16;7.78;75.14
66594;DHT22;53450;42.584;23.366;2024-03-06T08:44:44;7.73;75.59
66594;DHT22;53450;42.584;23.366;2024-03-06T08:47:16;7.82;76.06
66594;DHT22;53450;42.584;23.366;2024-03-06T08:49:45;7.78;74.92
66594;DHT22;53450;42.584;23.366;2024-03-06T08:52:13;7.82;75.93
66594;DHT22;53450;42.584;23.366;2024-03-06T08:54:48;8.04;75.70
66594;DHT22;53450;42.584;23.366;2024-03-06T08:57:16;8.07;74.94
66594;DHT22;53450;42.584;23.366;2024-03-06T08:59:47;8.14;75.15
66594;DHT22;53450;42.584;23.366;2024-03-06T09:02:15;8.17;74.61
66594;DHT22;53450;42.584;23.366;2024-03-06T09:05:12;8.23;74.98
66594;DHT22;53450;42.584;23.366;2024-03-06T09:08:04;8.21;74.03
66594;DHT22;53450;42.584;23.366;2024-03-06T09:10:39;8.23;75.24
66594;DHT22;53450;42.584;23.366;2024-03-06T09:13:13;8.36;74.85
66594;DHT22;53450;42.584;23.366;2024-03-06T09:15:42;8.45;73.61
66594;DHT22;53450;42.584;23.366;2024-03-06T09:18:07;8.42;72.18
66594;DHT22;53450;42.584;23.366;2024-03-06T09:20:33;8.48;71.66
66594;DHT22;53450;42.584;23.366;2024-03-06T09:23:02;8.62;71.36
66594;DHT22;53450;42.584;23.366;2024-03-06T09:25:31;8.58;70.76
66594;DHT22;53450;42.584;23.366;2024-03-06T09:29:05;8.64;70.61
66594;DHT22;53450;42.584;23.366;2024-03-06T09:32:15;8.59;70.94
66594;DHT22;53450;42.584;23.366;2024-03-06T09:35:21;8.69;71.33
66594;DHT22;53450;42.584;23.366;2024-03-06T09:38:50;8.64;70.67
66594;DHT22;53450;42.584;23.366;2024-03-06T09:41:21;8.57;71.60
66594;DHT22;53450;42.584;23.366;2024-03-06T09:43:54;8.64;71.43
66594;DHT22;53450;42.584;23.366;2024-03-06T09:46:46;8.78;72.10
66594;DHT22;53450;42.584;23.366;2024-03-06T09:49:32;8.82;70.99
66594;DHT22;53450;42.584;23.366;2024-03-06T09:52:23;9.03;70.08
66594;DHT22;53450;42.584;23.366;2024-03-06T09:54:58;8.96;70.20
66594;DHT22;53450;42.584;23.366;2024-03-06T09:57:27;8.65;69.11
66594;DHT22;53450;42.584;23.366;2024-03-06T09:59:57;8.96;69.16
66594;DHT22;53450;42.584;23.366;2024-03-06T10:02:48;9.17;68.80
66594;DHT22;53450;42.584;23.366;2024-03-06T10:05:23;9.46;68.19
66594;DHT22;53450;42.584;23.366;2024-03-06T10:07:58;9.62;67.16
66594;DHT22;53450;42.584;23.366;2024-03-06T10:10:27;9.65;66.70
66594;DHT22;53450;42.584;23.366;2024-03-06T10:12:53;9.41;66.39
66594;DHT22;53450;42.584;23.366;2024-03-06T10:15:26;9.57;67.05
66594;DHT22;53450;42.584;23.366;2024-03-06T10:18:15;9.78;66.55
66594;DHT22;53450;42.584;23.366;2024-03-06T10:20:49;9.96;65.42
66594;DHT22;53450;42.584;23.366;2024-03-06T10:23:18;10.02;64.16
66594;DHT22;53450;42.584;23.366;2024-03-06T10:25:55;10.03;63.42
66594;DHT22;53450;42.584;23.366;2024-03-06T10:28:29;9.91;63.49
66594;DHT22;53450;42.584;23.366;2024-03-06T10:31:03;10.01;63.00
66594;DHT22;53450;42.584;23.366;2024-03-06T10:33:31;10.05;62.95
66594;DHT22;53450;42.584;23.366;2024-03-06T10:35:57;10.26;62.08
66594;DHT22;53450;42.584;23.366;2024-03-06T10:38:23;10.45;61.48
66594;DHT22;53450;42.584;23.366;2024-03-06T10:48:26;10.64;60.93
66594;DHT22;53450;42.584;23.366;2024-03-06T10:50:57;10.60;60.16
66594;DHT22;53450;42.584;23.366;2024-03-06T10:53:26;10.64;59.52
66594;DHT22;53450;42.584;23.366;2024-03-06T10:56:08;10.85;57.95
66594;DHT22;53450;42.584;23.366;2024-03-06T10:58:34;11.05;57.43
66594;DHT22;53450;42.584;23.366;2024-03-06T11:01:06;11.00;58.37
66594;DHT22;53450;42.584;23.366;2024-03-06T11:03:36;11.15;59.77
66594;DHT22;53450;42.584;23.366;2024-03-06T11:06:22;11.38;56.46
66594;DHT22;53450;42.584;23.366;2024-03-06T11:08:48;11.40;54.91
66594;DHT22;53450;42.584;23.366;2024-03-06T11:11:23;11.55;56.36
66594;DHT22;53450;42.584;23.366;2024-03-06T11:13:54;11.53;55.18
66594;DHT22;53450;42.584;23.366;2024-03-06T11:16:27;11.46;54.76
66594;DHT22;53450;42.584;23.366;2024-03-06T11:19:20;11.45;54.21
66594;DHT22;53450;42.584;23.366;2024-03-06T11:22:21;11.31;53.82
66594;DHT22;53450;42.584;23.366;2024-03-06T11:28:27;11.29;55.60
66594;DHT22;53450;42.584;23.366;2024-03-06T11:34:58;11.28;53.90
66594;DHT22;53450;42.584;23.366;2024-03-06T11:37:35;11.08;53.79
66594;DHT22;53450;42.584;23.366;2024-03-06T11:40:24;11.03;54.89
66594;DHT22;53450;42.584;23.366;2024-03-06T11:43:25;10.90;53.01
66594;DHT22;53450;42.584;23.366;2024-03-06T11:49:54;11.12;53.15
66594;DHT22;53450;42.584;23.366;2024-03-06T11:53:34;11.00;52.91
66594;DHT22;53450;42.584;23.366;2024-03-06T11:57:05;11.03;55.41
66594;DHT22;53450;42.584;23.366;2024-03-06T11:59:36;11.16;55.42
66594;DHT22;53450;42.584;23.366;2024-03-06T12:02:07;11.31;55.06
66594;DHT22;53450;42.584;23.366;2024-03-06T12:05:01;11.08;54.08
66594;DHT22;53450;42.584;23.366;2024-03-06T12:07:33;11.05;53.86
66594;DHT22;53450;42.584;23.366;2024-03-06T12:12:53;10.93;54.20
66594;DHT22;53450;42.584;23.366;2024-03-06T12:15:20;11.01;54.82
66594;DHT22;53450;42.584;23.366;2024-03-06T12:17:49;11.19;54.27
66594;DHT22;53450;42.584;23.366;2024-03-06T12:20:23;11.29;54.30
66594;DHT22;53450;42.584;23.366;2024-03-06T12:22:56;11.47;54.03
66594;DHT22;53450;42.584;23.366;2024-03-06T12:25:31;11.52;52.63
66594;DHT22;53450;42.584;23.366;2024-03-06T12:28:07;11.61;52.35
66594;DHT22;53450;42.584;23.366;2024-03-06T12:30:44;11.61;52.66
66594;DHT22;53450;42.584;23.366;2024-03-06T12:33:18;12.08;52.86
66594;DHT22;53450;42.584;23.366;2024-03-06T12:35:48;12.11;51.74
66594;DHT22;53450;42.584;23.366;2024-03-06T12:38:16;12.21;51.96
66594;DHT22;53450;42.584;23.366;2024-03-06T12:40:45;12.37;52.55
66594;DHT22;53450;42.584;23.366;2024-03-06T12:43:16;12.38;52.77
66594;DHT22;53450;42.584;23.366;2024-03-06T12:45:53;12.35;52.97
66594;DHT22;53450;42.584;23.366;2024-03-06T12:48:27;12.20;52.45
66594;DHT22;53450;42.584;23.366;2024-03-06T12:51:05;11.95;51.54
66594;DHT22;53450;42.584;23.366;2024-03-06T12:53:38;12.07;53.41
66594;DHT22;53450;42.584;23.366;2024-03-06T12:56:05;11.91;53.25
66594;DHT22;53450;42.584;23.366;2024-03-06T12:58:41;11.72;55.01
66594;DHT22;53450;42.584;23.366;2024-03-06T13:01:15;11.76;54.83
66594;DHT22;53450;42.584;23.366;2024-03-06T13:03:48;11.91;54.93
66594;DHT22;53450;42.584;23.366;2024-03-06T13:06:15;11.91;54.90
66594;DHT22;53450;42.584;23.366;2024-03-06T13:08:43;11.94;55.09
66594;DHT22;53450;42.584;23.366;2024-03-06T13:11:14;11.86;53.71
66594;DHT22;53450;42.584;23.366;2024-03-06T13:13:47;11.84;54.53
66594;DHT22;53450;42.584;23.366;2024-03-06T13:16:25;11.73;55.14
66594;DHT22;53450;42.584;23.366;2024-03-06T13:18:59;11.52;57.57
66594;DHT22;53450;42.584;23.366;2024-03-06T13:21:37;11.33;57.70
66594;DHT22;53450;42.584;23.366;2024-03-06T13:27:06;10.81;59.41
66594;DHT22;53450;42.584;23.366;2024-03-06T13:29:38;10.64;60.05
66594;DHT22;53450;42.584;23.366;2024-03-06T13:32:08;10.57;60.21
66594;DHT22;53450;42.584;23.366;2024-03-06T13:34:46;10.39;60.49
66594;DHT22;53450;42.584;23.366;2024-03-06T13:37:18;10.47;60.50
66594;DHT22;53450;42.584;23.366;2024-03-06T13:39:45;10.43;60.87
66594;DHT22;53450;42.584;23.366;2024-03-06T13:42:39;10.36;62.00
66594;DHT22;53450;42.584;23.366;2024-03-06T13:49:06;10.33;61.50
66594;DHT22;53450;42.584;23.366;2024-03-06T13:51:37;10.33;61.09
66594;DHT22;53450;42.584;23.366;2024-03-06T13:54:19;10.28;61.79
66594;DHT22;53450;42.584;23.366;2024-03-06T13:56:59;10.23;61.41
66594;DHT22;53450;42.584;23.366;2024-03-06T13:59:35;10.16;61.20
66594;DHT22;53450;42.584;23.366;2024-03-06T14:02:19;10.20;61.01
66594;DHT22;53450;42.584;23.366;2024-03-06T14:04:53;10.26;60.58
66594;DHT22;53450;42.584;23.366;2024-03-06T14:07:29;10.35;60.44
66594;DHT22;53450;42.584;23.366;2024-03-06T14:10:03;10.36;60.57
66594;DHT22;53450;42.584;23.366;2024-03-06T14:12:33;10.46;60.59
66594;DHT22;53450;42.584;23.366;2024-03-06T14:15:04;10.53;60.66
66594;DHT22;53450;42.584;23.366;2024-03-06T14:17:49;10.53;59.84
66594;DHT22;53450;42.584;23.366;2024-03-06T14:20:38;10.60;59.42
66594;DHT22;53450;42.584;23.366;2024-03-06T14:23:07;10.45;60.43
66594;DHT22;53450;42.584;23.366;2024-03-06T14:25:48;10.45;59.39
66594;DHT22;53450;42.584;23.366;2024-03-06T14:28:17;10.61;59.91
66594;DHT22;53450;42.584;23.366;2024-03-06T14:30:43;10.64;59.85
66594;DHT22;53450;42.584;23.366;2024-03-06T14:33:17;10.61;60.75
66594;DHT22;53450;42.584;23.366;2024-03-06T14:35:45;10.43;60.64
66594;DHT22;53450;42.584;23.366;2024-03-06T14:38:36;10.39;61.79
66594;DHT22;53450;42.584;23.366;2024-03-06T14:41:03;10.30;62.38
66594;DHT22;53450;42.584;23.366;2024-03-06T14:43:31;10.23;62.68
66594;DHT22;53450;42.584;23.366;2024-03-06T14:46:00;9.98;63.95
66594;DHT22;53450;42.584;23.366;2024-03-06T14:48:28;9.74;64.62
66594;DHT22;53450;42.584;23.366;2024-03-06T14:51:09;9.54;65.40
66594;DHT22;53450;42.584;23.366;2024-03-06T14:53:51;9.38;66.54
66594;DHT22;53450;42.584;23.366;2024-03-06T14:56:22;9.09;68.59
66594;DHT22;53450;42.584;23.366;2024-03-06T14:58:50;8.89;71.65
66594;DHT22;53450;42.584;23.366;2024-03-06T15:01:26;8.67;73.52
66594;DHT22;53450;42.584;23.366;2024-03-06T15:04:00;8.42;75.61
66594;DHT22;53450;42.584;23.366;2024-03-06T15:06:26;8.38;77.68
66594;DHT22;53450;42.584;23.366;2024-03-06T15:09:24;8.27;78.25
66594;DHT22;53450;42.584;23.366;2024-03-06T15:12:34;8.17;78.72
66594;DHT22;53450;42.584;23.366;2024-03-06T15:15:28;8.03;79.09
66594;DHT22;53450;42.584;23.366;2024-03-06T15:18:07;7.96;79.52
66594;DHT22;53450;42.584;23.366;2024-03-06T15:20:54;7.85;79.34
66594;DHT22;53450;42.584;23.366;2024-03-06T15:23:20;7.79;80.17
66594;DHT22;53450;42.584;23.366;2024-03-06T15:25:55;7.75;81.12
66594;DHT22;53450;42.584;23.366;2024-03-06T15:28:31;7.79;80.80
66594;DHT22;53450;42.584;23.366;2024-03-06T15:31:00;7.75;80.70
66594;DHT22;53450;42.584;23.366;2024-03-06T15:33:30;7.70;80.92
66594;DHT22;53450;42.584;23.366;2024-03-06T15:36:12;7.69;80.93
66594;DHT22;53450;42.584;23.366;2024-03-06T15:38:55;7.78;81.14
66594;DHT22;53450;42.584;23.366;2024-03-06T15:41:35;7.82;80.96
66594;DHT22;53450;42.584;23.366;2024-03-06T15:44:07;7.80;80.96
66594;DHT22;53450;42.584;23.366;2024-03-06T15:46:39;7.91;80.08
66594;DHT22;53450;42.584;23.366;2024-03-06T15:49:31;7.93;80.97
66594;DHT22;53450;42.584;23.366;2024-03-06T15:51:59;7.96;80.78
66594;DHT22;53450;42.584;23.366;2024-03-06T15:54:44;7.97;81.09
66594;DHT22;53450;42.584;23.366;2024-03-06T15:57:15;8.00;81.86
66594;DHT22;53450;42.584;23.366;2024-03-06T15:59:52;7.99;81.06
66594;DHT22;53450;42.584;23.366;2024-03-06T16:02:38;8.03;81.28
66594;DHT22;53450;42.584;23.366;2024-03-06T16:05:14;8.10;81.35
66594;DHT22;53450;42.584;23.366;2024-03-06T16:11:04;8.10;82.09
66594;DHT22;53450;42.584;23.366;2024-03-06T16:13:42;8.06;82.06
66594;DHT22;53450;42.584;23.366;2024-03-06T16:16:16;8.10;82.31
66594;DHT22;53450;42.584;23.366;2024-03-06T16:18:49;8.14;81.98
66594;DHT22;53450;42.584;23.366;2024-03-06T16:21:25;8.11;82.21
66594;DHT22;53450;42.584;23.366;2024-03-06T16:24:05;8.09;82.41
66594;DHT22;53450;42.584;23.366;2024-03-06T16:26:34;8.00;82.82
66594;DHT22;53450;42.584;23.366;2024-03-06T16:29:02;7.90;82.58
66594;DHT22;53450;42.584;23.366;2024-03-06T16:31:39;7.83;82.38
66594;DHT22;53450;42.584;23.366;2024-03-06T16:34:16;7.73;82.01
66594;DHT22;53450;42.584;23.366;2024-03-06T16:36:49;7.68;81.78